createdAt,value
2022-11-12T00:00:04.370Z,66.10
2022-11-12T00:02:49.604Z,66.10
2022-11-12T00:05:35.820Z,65.90
2022-11-12T00:08:22.909Z,65.80
2022-11-12T00:11:08.171Z,65.70
2022-11-12T00:13:53.768Z,65.90
2022-11-12T00:16:38.771Z,66.00
2022-11-12T00:19:24.297Z,65.80
2022-11-12T00:22:09.611Z,65.60
2022-11-12T00:24:54.844Z,65.50
2022-11-12T00:27:40.372Z,65.70
2022-11-12T00:30:25.652Z,65.50
2022-11-12T00:33:10.861Z,65.00
2022-11-12T00:35:59.710Z,65.40
2022-11-12T00:38:45.482Z,65.20
2022-11-12T00:41:30.710Z,65.10
2022-11-12T00:44:16.169Z,65.20
2022-11-12T00:47:01.720Z,65.20
2022-11-12T00:49:46.912Z,65.00
2022-11-12T00:52:32.200Z,65.00
2022-11-12T00:55:17.617Z,65.20
2022-11-12T00:58:02.870Z,65.10
2022-11-12T01:00:48.452Z,65.10
2022-11-12T01:03:33.832Z,65.00
2022-11-12T01:06:21.888Z,65.20
2022-11-12T01:09:08.512Z,65.30
2022-11-12T01:11:53.641Z,65.80
2022-11-12T01:14:39.251Z,65.90
2022-11-12T01:17:24.797Z,65.90
2022-11-12T01:20:10.620Z,65.70
2022-11-12T01:22:55.997Z,66.00
2022-11-12T01:25:41.474Z,65.70
2022-11-12T01:28:27.247Z,65.90
2022-11-12T01:31:26.113Z,66.80
2022-11-12T01:34:11.427Z,68.20
2022-11-12T01:36:57.034Z,69.00
2022-11-12T01:39:42.710Z,69.90
2022-11-12T01:42:33.066Z,70.20
2022-11-12T01:45:18.854Z,70.30
2022-11-12T01:48:04.671Z,69.90
2022-11-12T01:50:50.534Z,69.80
2022-11-12T01:53:41.745Z,69.60
2022-11-12T01:56:30.286Z,69.10
2022-11-12T01:59:24.902Z,69.00
2022-11-12T02:02:10.907Z,68.70
2022-11-12T02:04:57.877Z,68.80
2022-11-12T02:07:45.864Z,68.70
2022-11-12T02:10:31.613Z,68.80
2022-11-12T02:13:36.761Z,69.10
2022-11-12T02:16:22.518Z,69.40
2022-11-12T02:19:11.351Z,69.70
2022-11-12T02:21:56.596Z,69.60
2022-11-12T02:24:41.747Z,70.60
2022-11-12T02:27:27.771Z,70.70
2022-11-12T02:30:13.079Z,71.20
2022-11-12T02:32:58.924Z,71.70
2022-11-12T02:35:44.180Z,71.60
2022-11-12T02:38:29.762Z,71.00
2022-11-12T02:41:15.644Z,70.40
2022-11-12T02:44:01.441Z,70.60
2022-11-12T02:46:46.735Z,71.60
2022-11-12T02:49:32.336Z,72.10
2022-11-12T02:52:17.875Z,72.00
2022-11-12T02:55:03.716Z,72.80
2022-11-12T02:57:49.119Z,73.00
2022-11-12T03:00:34.821Z,73.20
2022-11-12T03:03:20.363Z,74.20
2022-11-12T03:06:06.404Z,73.40
2022-11-12T03:08:51.559Z,73.40
2022-11-12T03:11:37.159Z,74.40
2022-11-12T03:14:22.704Z,73.50
2022-11-12T03:17:08.030Z,73.50
2022-11-12T03:19:53.630Z,73.40
2022-11-12T03:22:39.747Z,73.30
2022-11-12T03:25:26.217Z,73.30
2022-11-12T03:28:14.140Z,73.00
2022-11-12T03:31:00.912Z,73.20
2022-11-12T03:33:46.317Z,73.30
2022-11-12T03:36:31.892Z,73.50
2022-11-12T03:39:17.493Z,73.60
2022-11-12T03:42:03.831Z,73.30
2022-11-12T03:44:49.064Z,72.80
2022-11-12T03:47:34.384Z,72.70
2022-11-12T03:50:21.644Z,72.20
2022-11-12T03:53:07.326Z,71.40
2022-11-12T03:55:53.165Z,71.40
2022-11-12T03:58:38.424Z,71.20
2022-11-12T04:01:23.714Z,70.80
2022-11-12T04:04:10.075Z,70.70
2022-11-12T04:07:13.679Z,70.50
2022-11-12T04:09:59.004Z,70.50
2022-11-12T04:13:02.884Z,70.80
2022-11-12T04:16:08.030Z,71.20
2022-11-12T04:19:14.464Z,70.90
2022-11-12T04:22:03.669Z,70.50
2022-11-12T04:25:07.775Z,70.50
2022-11-12T04:27:53.262Z,70.70
2022-11-12T04:30:38.790Z,70.70
2022-11-12T04:33:24.157Z,70.50
2022-11-12T04:36:09.682Z,71.10
2022-11-12T04:38:55.175Z,69.90
2022-11-12T04:41:58.950Z,69.70
2022-11-12T04:45:03.847Z,69.50
2022-11-12T04:47:49.231Z,69.10
2022-11-12T04:50:34.919Z,69.00
2022-11-12T04:53:20.400Z,68.80
2022-11-12T04:56:06.059Z,68.30
2022-11-12T04:58:51.233Z,68.20
2022-11-12T05:01:36.459Z,68.00
2022-11-12T05:04:22.095Z,67.80
2022-11-12T05:07:08.113Z,67.50
2022-11-12T05:09:53.545Z,68.00
2022-11-12T05:12:39.266Z,67.20
2022-11-12T05:15:24.581Z,67.10
2022-11-12T05:18:09.788Z,67.30
2022-11-12T05:20:55.197Z,67.20
2022-11-12T05:23:40.443Z,67.10
2022-11-12T05:26:25.744Z,67.20
2022-11-12T05:29:11.318Z,67.20
2022-11-12T05:31:57.026Z,67.40
2022-11-12T05:34:42.748Z,67.70
2022-11-12T05:37:28.204Z,67.80
2022-11-12T05:40:13.849Z,67.70
2022-11-12T05:42:59.084Z,67.50
2022-11-12T05:45:44.609Z,67.50
2022-11-12T05:48:30.574Z,67.70
2022-11-12T05:51:16.667Z,67.60
2022-11-12T05:54:02.354Z,67.80
2022-11-12T05:56:47.895Z,67.70
2022-11-12T05:59:33.607Z,67.80
2022-11-12T06:02:18.918Z,67.90
2022-11-12T06:05:04.958Z,67.80
2022-11-12T06:07:50.217Z,67.50
2022-11-12T06:10:35.842Z,67.70
2022-11-12T06:13:23.142Z,68.20
2022-11-12T06:16:08.994Z,68.30
2022-11-12T06:18:54.198Z,68.70
2022-11-12T06:21:39.832Z,68.50
2022-11-12T06:24:27.546Z,68.20
2022-11-12T06:27:14.634Z,68.00
2022-11-12T06:30:00.164Z,68.10
2022-11-12T06:32:49.646Z,67.80
2022-11-12T06:35:37.116Z,67.80
2022-11-12T06:38:26.095Z,67.80
2022-11-12T06:41:13.323Z,67.80
2022-11-12T06:43:58.742Z,67.70
2022-11-12T06:46:44.089Z,68.40
2022-11-12T06:49:29.653Z,67.80
2022-11-12T06:52:16.802Z,68.10
2022-11-12T06:55:02.620Z,67.80
2022-11-12T06:57:52.576Z,68.00
2022-11-12T07:00:38.075Z,68.30
2022-11-12T07:03:23.833Z,68.40
2022-11-12T07:06:14.740Z,68.40
2022-11-12T07:09:00.097Z,68.00
2022-11-12T07:11:45.467Z,68.00
2022-11-12T07:14:30.734Z,68.30
2022-11-12T07:17:16.054Z,69.10
2022-11-12T07:20:03.922Z,70.00
2022-11-12T07:22:49.793Z,70.20
2022-11-12T07:25:35.163Z,69.60
2022-11-12T07:28:21.322Z,69.20
2022-11-12T07:31:10.104Z,69.00
2022-11-12T07:33:55.547Z,68.80
2022-11-12T07:36:41.124Z,68.70
2022-11-12T07:39:26.283Z,68.50
2022-11-12T07:42:11.589Z,68.40
2022-11-12T07:44:57.255Z,68.40
2022-11-12T07:47:42.657Z,68.50
2022-11-12T07:50:28.020Z,69.30
2022-11-12T07:53:13.089Z,68.50
2022-11-12T07:56:00.217Z,68.70
2022-11-12T07:58:46.073Z,68.70
2022-11-12T08:01:35.847Z,68.80
2022-11-12T08:04:21.083Z,68.90
2022-11-12T08:07:06.721Z,69.10
2022-11-12T08:09:52.015Z,69.50
2022-11-12T08:12:37.486Z,69.70
2022-11-12T08:15:22.799Z,70.20
2022-11-12T08:18:08.381Z,70.40
2022-11-12T08:20:59.915Z,70.70
2022-11-12T08:23:46.214Z,71.50
2022-11-12T08:26:31.770Z,72.20
2022-11-12T08:29:17.258Z,72.80
2022-11-12T08:32:02.532Z,73.70
2022-11-12T08:34:48.117Z,74.70
2022-11-12T08:37:33.557Z,74.50
2022-11-12T08:40:18.920Z,73.60
2022-11-12T08:43:07.939Z,72.70
2022-11-12T08:45:53.682Z,71.80
2022-11-12T08:48:40.225Z,71.30
2022-11-12T08:51:26.172Z,70.70
2022-11-12T08:54:11.544Z,69.90
2022-11-12T08:56:57.010Z,68.80
2022-11-12T08:59:42.447Z,67.40
2022-11-12T09:02:27.841Z,66.80
2022-11-12T09:05:13.148Z,66.10
2022-11-12T09:07:59.816Z,65.70
2022-11-12T09:10:46.360Z,65.10
2022-11-12T09:13:31.867Z,64.30
2022-11-12T09:16:18.177Z,63.60
2022-11-12T09:19:03.744Z,63.40
2022-11-12T09:21:49.287Z,62.80
2022-11-12T09:24:35.030Z,63.00
2022-11-12T09:27:20.789Z,62.60
2022-11-12T09:30:06.850Z,61.60
2022-11-12T09:32:57.977Z,60.90
2022-11-12T09:35:43.922Z,60.30
2022-11-12T09:38:30.090Z,59.80
2022-11-12T09:41:32.401Z,60.00
2022-11-12T09:44:20.806Z,59.70
2022-11-12T09:47:25.109Z,59.60
2022-11-12T09:50:25.944Z,59.10
2022-11-12T09:53:30.310Z,59.10
2022-11-12T09:56:21.958Z,59.60
2022-11-12T09:59:13.976Z,59.20
2022-11-12T10:02:33.018Z,58.80
2022-11-12T10:05:36.309Z,58.40
2022-11-12T10:08:39.517Z,58.80
2022-11-12T10:12:19.098Z,58.90
2022-11-12T10:15:44.557Z,59.60
2022-11-12T10:18:43.817Z,60.10
2022-11-12T10:22:11.938Z,60.10
2022-11-12T10:24:59.754Z,60.20
2022-11-12T10:27:46.231Z,60.90
2022-11-12T10:30:32.089Z,61.20
2022-11-12T10:33:17.268Z,61.50
2022-11-12T10:36:20.416Z,61.20
2022-11-12T10:39:06.136Z,61.10
2022-11-12T10:42:07.024Z,61.60
2022-11-12T10:44:52.465Z,61.50
2022-11-12T10:47:43.985Z,61.50
2022-11-12T10:50:35.333Z,61.60
2022-11-12T10:53:40.498Z,61.70
2022-11-12T10:56:30.531Z,61.60
2022-11-12T10:59:26.145Z,61.70
2022-11-12T11:02:19.187Z,61.60
2022-11-12T11:05:44.031Z,61.90
2022-11-12T11:08:36.284Z,60.40
2022-11-12T11:11:28.057Z,60.00
2022-11-12T11:14:22.712Z,60.00
2022-11-12T11:17:18.859Z,60.10
2022-11-12T11:20:11.169Z,60.00
2022-11-12T11:23:26.455Z,59.80
2022-11-12T11:26:34.978Z,59.90
2022-11-12T11:29:58.242Z,59.00
2022-11-12T11:33:07.546Z,58.70
2022-11-12T11:36:13.027Z,58.70
2022-11-12T11:39:12.284Z,58.30
2022-11-12T11:42:19.367Z,57.80
2022-11-12T11:45:20.784Z,58.10
2022-11-12T11:48:15.323Z,59.00
2022-11-12T11:51:38.582Z,58.60
2022-11-12T11:54:48.894Z,57.90
2022-11-12T11:57:40.154Z,58.00
2022-11-12T12:00:35.385Z,58.60
2022-11-12T12:03:32.880Z,58.10
2022-11-12T12:06:27.965Z,57.60
2022-11-12T12:09:33.381Z,57.70
2022-11-12T12:12:26.461Z,58.20
2022-11-12T12:15:29.864Z,58.00
2022-11-12T12:18:39.542Z,57.50
2022-11-12T12:21:26.532Z,57.50
2022-11-12T12:24:17.867Z,58.20
2022-11-12T12:27:12.321Z,57.70
2022-11-12T12:30:24.760Z,58.30
2022-11-12T12:33:29.016Z,59.00
2022-11-12T12:36:36.422Z,58.10
2022-11-12T12:39:47.960Z,58.00
2022-11-12T12:43:00.158Z,58.30
2022-11-12T12:45:47.080Z,59.20
2022-11-12T12:48:39.418Z,59.10
2022-11-12T12:51:29.144Z,59.30
2022-11-12T12:54:36.207Z,58.10
2022-11-12T12:57:36.455Z,58.80
2022-11-12T13:00:35.496Z,58.70
2022-11-12T13:03:59.685Z,58.40
2022-11-12T13:06:47.824Z,58.70
2022-11-12T13:09:33.303Z,59.40
2022-11-12T13:12:19.257Z,59.20
2022-11-12T13:15:12.818Z,58.80
2022-11-12T13:17:58.414Z,59.80
2022-11-12T13:21:22.341Z,58.40
2022-11-12T13:24:13.001Z,58.40
2022-11-12T13:27:01.642Z,58.00
2022-11-12T13:29:47.981Z,58.90
2022-11-12T13:32:48.895Z,58.30
2022-11-12T13:35:40.582Z,58.20
2022-11-12T13:38:26.379Z,58.70
2022-11-12T13:41:12.162Z,59.10
2022-11-12T13:43:57.761Z,58.80
2022-11-12T13:46:43.644Z,59.40
2022-11-12T13:49:29.973Z,58.70
2022-11-12T13:52:18.628Z,58.60
2022-11-12T13:55:15.458Z,58.40
2022-11-12T13:58:00.670Z,58.40
2022-11-12T14:00:57.662Z,59.00
2022-11-12T14:03:46.500Z,58.80
2022-11-12T14:06:42.405Z,58.90
2022-11-12T14:09:34.170Z,58.10
2022-11-12T14:12:25.491Z,58.60
2022-11-12T14:15:29.438Z,58.70
2022-11-12T14:18:35.002Z,58.80
2022-11-12T14:21:20.545Z,58.80
2022-11-12T14:24:10.607Z,59.10
2022-11-12T14:26:56.313Z,59.40
2022-11-12T14:29:43.850Z,59.70
2022-11-12T14:32:36.545Z,59.70
2022-11-12T14:35:29.632Z,60.00
2022-11-12T14:38:29.372Z,60.00
2022-11-12T14:41:36.996Z,59.70
2022-11-12T14:44:38.130Z,59.80
2022-11-12T14:47:24.242Z,59.80
2022-11-12T14:50:27.729Z,59.70
2022-11-12T14:53:37.399Z,59.70
2022-11-12T14:56:35.853Z,59.90
2022-11-12T14:59:21.559Z,60.00
2022-11-12T15:02:34.624Z,61.00
2022-11-12T15:05:22.121Z,60.20
2022-11-12T15:08:12.168Z,60.00
2022-11-12T15:11:20.287Z,60.00
2022-11-12T15:14:20.189Z,59.90
2022-11-12T15:17:06.062Z,60.00
2022-11-12T15:19:51.571Z,60.00
2022-11-12T15:22:36.980Z,61.00
2022-11-12T15:25:32.457Z,60.00
2022-11-12T15:28:23.963Z,60.10
2022-11-12T15:31:21.760Z,59.60
2022-11-12T15:34:41.115Z,59.50
2022-11-12T15:37:28.571Z,59.60
2022-11-12T15:40:20.327Z,59.50
2022-11-12T15:43:19.551Z,59.60
2022-11-12T15:46:04.973Z,59.70
2022-11-12T15:48:55.603Z,59.90
2022-11-12T15:51:41.462Z,60.00
2022-11-12T15:54:26.810Z,60.20
2022-11-12T15:57:16.189Z,60.80
2022-11-12T16:00:08.501Z,60.60
2022-11-12T16:03:00.358Z,60.60
2022-11-12T16:05:46.177Z,60.80
2022-11-12T16:08:31.685Z,60.90
2022-11-12T16:11:35.538Z,60.90
2022-11-12T16:14:24.834Z,60.80
2022-11-12T16:17:16.268Z,60.80
2022-11-12T16:20:01.870Z,60.90
2022-11-12T16:22:50.844Z,60.90
2022-11-12T16:25:38.335Z,61.00
2022-11-12T16:28:23.707Z,61.20
2022-11-12T16:31:09.210Z,61.40
2022-11-12T16:33:54.544Z,61.60
2022-11-12T16:36:40.267Z,61.80
2022-11-12T16:39:25.461Z,62.10
2022-11-12T16:42:11.382Z,62.20
2022-11-12T16:44:56.462Z,62.50
2022-11-12T16:47:50.438Z,62.40
2022-11-12T16:50:35.910Z,62.20
2022-11-12T16:53:21.380Z,62.10
2022-11-12T16:56:21.192Z,61.60
2022-11-12T16:59:06.651Z,62.40
2022-11-12T17:01:52.311Z,61.40
2022-11-12T17:04:37.764Z,61.40
2022-11-12T17:07:23.215Z,61.30
2022-11-12T17:10:09.533Z,61.90
2022-11-12T17:12:54.711Z,62.00
2022-11-12T17:15:40.222Z,61.90
2022-11-12T17:18:25.558Z,61.70
2022-11-12T17:21:14.113Z,62.60
2022-11-12T17:23:59.513Z,62.00
2022-11-12T17:26:45.782Z,62.40
2022-11-12T17:29:31.252Z,62.30
2022-11-12T17:32:16.526Z,62.90
2022-11-12T17:35:01.931Z,62.90
2022-11-12T17:37:47.370Z,63.20
2022-11-12T17:40:32.993Z,63.40
2022-11-12T17:43:18.204Z,63.30
2022-11-12T17:46:04.953Z,62.30
2022-11-12T17:48:50.595Z,62.70
2022-11-12T17:51:35.961Z,63.40
2022-11-12T17:54:21.759Z,63.40
2022-11-12T17:57:06.870Z,63.20
2022-11-12T17:59:52.194Z,64.30
2022-11-12T18:02:37.530Z,64.10
2022-11-12T18:05:22.893Z,64.70
2022-11-12T18:08:08.588Z,65.50
2022-11-12T18:10:53.966Z,65.30
2022-11-12T18:13:39.688Z,64.50
2022-11-12T18:16:27.867Z,64.10
2022-11-12T18:19:13.239Z,64.90
2022-11-12T18:21:59.773Z,63.90
2022-11-12T18:24:45.139Z,64.30
2022-11-12T18:27:30.682Z,64.30
2022-11-12T18:30:19.464Z,64.10
2022-11-12T18:33:05.614Z,63.70
2022-11-12T18:36:11.369Z,63.80
2022-11-12T18:38:56.852Z,63.90
2022-11-12T18:41:42.397Z,63.40
2022-11-12T18:44:27.903Z,63.50
2022-11-12T18:47:13.395Z,63.50
2022-11-12T18:50:01.729Z,63.60
2022-11-12T18:52:49.383Z,63.90
2022-11-12T18:55:35.081Z,64.40
2022-11-12T18:58:20.719Z,64.00
2022-11-12T19:01:15.952Z,64.00
2022-11-12T19:04:01.792Z,64.10
2022-11-12T19:06:47.338Z,64.60
2022-11-12T19:09:32.893Z,65.10
2022-11-12T19:12:18.073Z,66.10
2022-11-12T19:15:04.394Z,67.80
2022-11-12T19:17:49.566Z,65.90
2022-11-12T19:20:34.929Z,66.70
2022-11-12T19:23:20.561Z,67.30
2022-11-12T19:26:08.478Z,67.40
2022-11-12T19:28:54.439Z,67.80
2022-11-12T19:31:40.854Z,68.20
2022-11-12T19:34:26.300Z,68.50
2022-11-12T19:37:32.440Z,68.60
2022-11-12T19:40:17.333Z,68.50
2022-11-12T19:43:02.791Z,68.00
2022-11-12T19:45:48.326Z,68.00
2022-11-12T19:48:33.523Z,68.20
2022-11-12T19:51:18.857Z,67.70
2022-11-12T19:54:04.576Z,68.10
2022-11-12T19:56:50.343Z,67.40
2022-11-12T19:59:35.974Z,67.30
2022-11-12T20:02:21.385Z,67.80
2022-11-12T20:05:06.827Z,66.70
2022-11-12T20:07:52.666Z,66.00
2022-11-12T20:10:38.196Z,66.30
2022-11-12T20:13:23.716Z,66.00
2022-11-12T20:16:14.150Z,65.40
2022-11-12T20:18:59.726Z,65.70
2022-11-12T20:21:45.260Z,65.50
2022-11-12T20:24:30.909Z,66.60
2022-11-12T20:27:17.772Z,66.70
2022-11-12T20:30:04.626Z,66.10
2022-11-12T20:32:49.794Z,65.80
2022-11-12T20:35:36.877Z,65.30
2022-11-12T20:38:22.213Z,65.00
2022-11-12T20:41:12.231Z,66.00
2022-11-12T20:44:00.250Z,67.30
2022-11-12T20:46:46.169Z,67.00
2022-11-12T20:49:31.607Z,66.60
2022-11-12T20:52:17.043Z,66.40
2022-11-12T20:55:02.550Z,67.00
2022-11-12T20:57:47.676Z,66.60
2022-11-12T21:00:33.298Z,66.50
2022-11-12T21:03:18.822Z,66.90
2022-11-12T21:06:06.933Z,67.00
2022-11-12T21:08:52.845Z,66.60
2022-11-12T21:11:38.506Z,67.00
2022-11-12T21:14:23.749Z,67.90
2022-11-12T21:17:10.160Z,69.20
2022-11-12T21:19:55.527Z,69.50
2022-11-12T21:22:40.921Z,70.10
2022-11-12T21:25:26.294Z,69.50
2022-11-12T21:28:11.806Z,69.90
2022-11-12T21:31:09.977Z,69.80
2022-11-12T21:33:58.257Z,69.30
2022-11-12T21:36:43.829Z,68.70
2022-11-12T21:39:29.017Z,67.90
2022-11-12T21:42:14.281Z,68.60
2022-11-12T21:44:59.736Z,67.40
2022-11-12T21:47:45.093Z,66.90
2022-11-12T21:50:30.292Z,66.50
2022-11-12T21:53:17.240Z,66.00
2022-11-12T21:56:08.055Z,66.30
2022-11-12T21:58:54.340Z,66.90
2022-11-12T22:01:40.602Z,65.30
2022-11-12T22:04:25.836Z,65.50
2022-11-12T22:07:11.407Z,66.70
2022-11-12T22:09:57.193Z,66.00
2022-11-12T22:13:05.063Z,66.30
2022-11-12T22:15:50.614Z,66.60
2022-11-12T22:18:36.446Z,66.90
2022-11-12T22:21:25.753Z,66.20
2022-11-12T22:24:11.874Z,66.10
2022-11-12T22:27:01.215Z,65.80
2022-11-12T22:29:49.500Z,66.10
2022-11-12T22:32:34.839Z,65.70
2022-11-12T22:35:20.050Z,66.30
2022-11-12T22:38:05.707Z,66.10
2022-11-12T22:40:51.025Z,66.00
2022-11-12T22:43:39.679Z,66.10
2022-11-12T22:46:35.514Z,66.00
2022-11-12T22:49:20.723Z,65.80
2022-11-12T22:52:07.641Z,66.10
2022-11-12T22:54:53.178Z,66.90
2022-11-12T22:57:38.822Z,67.50
2022-11-12T23:00:30.965Z,67.50
2022-11-12T23:03:16.243Z,67.60
2022-11-12T23:06:04.421Z,67.70
2022-11-12T23:08:49.803Z,67.60
2022-11-12T23:11:37.787Z,67.80
2022-11-12T23:14:23.181Z,68.50
2022-11-12T23:17:08.341Z,68.70
2022-11-12T23:19:54.110Z,68.40
2022-11-12T23:22:39.680Z,68.60
2022-11-12T23:25:24.902Z,68.50
2022-11-12T23:28:10.704Z,68.90
2022-11-12T23:30:55.852Z,69.10
2022-11-12T23:33:45.506Z,69.10
2022-11-12T23:36:32.081Z,69.00
2022-11-12T23:39:17.378Z,68.30
2022-11-12T23:42:02.710Z,68.30
2022-11-12T23:44:48.210Z,68.00
2022-11-12T23:47:33.666Z,67.50
2022-11-12T23:50:19.197Z,67.30
2022-11-12T23:53:04.656Z,67.30
2022-11-12T23:55:50.731Z,67.10
2022-11-12T23:58:37.620Z,66.30
